Time;durP1;ratioP1;P1;durP2;ratioP2;P2;SDS_P1;SDS_P2;PMS_P1;PMS_P2;Temp;Humidity;BMP_temperature;BMP_pressure;BME280_temperature;BME280_humidity;BME280_pressure;Samples;Min_cycle;Max_cycle;Signal;HPM_P1;HPM_P2
2021/10/20 00:01:19;;;;;;;4.10;1.90;;;20.80;55.00;;;;;;5115597;27;20024;-57
2021/10/20 00:03:45;;;;;;;3.58;1.73;;;20.80;55.00;;;;;;5133857;27;20100;-58
2021/10/20 00:06:10;;;;;;;3.15;1.48;;;20.80;55.00;;;;;;5133966;27;20046;-59
2021/10/20 00:08:36;;;;;;;5.28;1.92;;;20.80;55.00;;;;;;5115519;27;20062;-59
2021/10/20 00:11:01;;;;;;;4.78;1.70;;;20.80;55.00;;;;;;5134032;27;20098;-58
2021/10/20 00:13:27;;;;;;;5.85;1.83;;;20.80;55.00;;;;;;5133947;27;20027;-59
2021/10/20 00:15:53;;;;;;;5.22;1.83;;;20.80;55.00;;;;;;5133969;28;20434;-57
2021/10/20 00:18:19;;;;;;;3.88;1.58;;;20.80;55.00;;;;;;5134119;28;20035;-58
2021/10/20 00:20:46;;;;;;;4.57;1.70;;;20.80;55.00;;;;;;5133942;28;20068;-58
2021/10/20 00:23:12;;;;;;;3.83;1.67;;;20.80;55.00;;;;;;5133758;28;20031;-56
2021/10/20 00:25:39;;;;;;;4.32;2.08;;;20.80;55.00;;;;;;5134019;28;20080;-59
2021/10/20 00:28:05;;;;;;;4.00;1.70;;;20.80;55.00;;;;;;5136573;27;20023;-58
2021/10/20 00:30:31;;;;;;;3.72;1.80;;;20.80;55.00;;;;;;5138028;27;20024;-58
2021/10/20 00:32:57;;;;;;;5.03;1.65;;;20.80;55.00;;;;;;5137980;27;20019;-58
2021/10/20 00:35:23;;;;;;;3.13;1.50;;;20.80;55.00;;;;;;5138048;27;20355;-58
2021/10/20 00:37:48;;;;;;;3.58;1.73;;;20.80;55.00;;;;;;5137902;27;20023;-58
2021/10/20 00:40:14;;;;;;;5.18;1.98;;;20.80;55.00;;;;;;5119423;27;20039;-58
2021/10/20 00:42:42;;;;;;;5.50;2.00;;;20.80;55.00;;;;;;5137739;27;20054;-59
2021/10/20 00:45:09;;;;;;;3.80;1.75;;;20.80;55.00;;;;;;5137656;27;20024;-58
2021/10/20 00:47:36;;;;;;;4.55;1.60;;;20.80;55.00;;;;;;5137668;27;20023;-59
2021/10/20 00:50:05;;;;;;;4.10;1.80;;;20.80;55.00;;;;;;5137567;27;20538;-58
2021/10/20 00:52:30;;;;;;;3.33;1.55;;;20.80;55.00;;;;;;5137600;27;20081;-58
2021/10/20 00:54:56;;;;;;;3.85;1.63;;;20.80;55.00;;;;;;5137534;27;20490;-59
2021/10/20 00:57:24;;;;;;;3.55;1.50;;;20.80;55.00;;;;;;5137501;27;20425;-58
2021/10/20 00:59:51;;;;;;;4.53;1.60;;;20.80;55.00;;;;;;5137393;27;20020;-57
2021/10/20 01:02:16;;;;;;;4.68;2.00;;;20.80;55.00;;;;;;5137497;27;20038;-57
2021/10/20 01:04:42;;;;;;;3.35;1.60;;;20.80;55.00;;;;;;5137332;27;20212;-58
2021/10/20 01:07:08;;;;;;;3.25;1.55;;;20.80;55.00;;;;;;5137468;27;20043;-58
2021/10/20 01:09:35;;;;;;;4.30;1.73;;;20.70;55.00;;;;;;5137214;27;20019;-58
2021/10/20 01:12:01;;;;;;;3.50;1.63;;;20.80;55.00;;;;;;5137124;27;20106;-59
2021/10/20 01:14:29;;;;;;;5.65;1.83;;;20.80;55.00;;;;;;5137172;27;20063;-59
2021/10/20 01:16:55;;;;;;;3.92;1.75;;;20.80;55.00;;;;;;5136991;27;20102;-57
2021/10/20 01:19:21;;;;;;;4.13;1.80;;;20.80;55.00;;;;;;5136939;27;20486;-57
2021/10/20 01:21:47;;;;;;;4.32;1.67;;;20.80;55.00;;;;;;5136959;27;20024;-58
2021/10/20 01:24:12;;;;;;;3.80;1.83;;;20.80;55.00;;;;;;5136955;27;20593;-56
2021/10/20 01:26:38;;;;;;;4.13;1.88;;;20.80;55.00;;;;;;5136847;27;20501;-58
2021/10/20 01:29:03;;;;;;;4.03;1.58;;;20.80;55.00;;;;;;5137085;27;20027;-57
2021/10/20 01:31:29;;;;;;;5.13;2.35;;;20.80;55.00;;;;;;5137026;27;20110;-56
2021/10/20 01:33:55;;;;;;;3.88;1.80;;;20.80;55.00;;;;;;5136658;27;20099;-60
2021/10/20 01:36:20;;;;;;;3.45;1.60;;;20.70;55.00;;;;;;5137034;27;20524;-57
2021/10/20 01:38:46;;;;;;;3.33;1.63;;;20.80;55.00;;;;;;5136554;27;20027;-59
2021/10/20 01:41:13;;;;;;;5.50;1.80;;;20.80;55.00;;;;;;5136522;27;20043;-59
2021/10/20 01:43:44;;;;;;;3.35;1.60;;;20.70;55.00;;;;;;5136429;27;20039;-59
2021/10/20 01:46:11;;;;;;;3.65;1.70;;;20.80;55.00;;;;;;5118111;27;20027;-58
2021/10/20 01:48:36;;;;;;;2.78;1.35;;;20.70;55.00;;;;;;5136496;27;20402;-59
2021/10/20 01:51:02;;;;;;;3.97;1.63;;;20.80;55.00;;;;;;5136549;27;20501;-59
2021/10/20 01:53:28;;;;;;;4.60;1.70;;;20.70;55.00;;;;;;5136387;27;20019;-60
2021/10/20 01:55:53;;;;;;;4.40;1.80;;;20.70;55.00;;;;;;5136386;27;20466;-59
2021/10/20 01:58:19;;;;;;;4.47;2.10;;;20.70;55.00;;;;;;5136260;27;20050;-57
2021/10/20 02:00:45;;;;;;;3.35;1.67;;;20.80;55.00;;;;;;5136147;27;20035;-58
2021/10/20 02:03:11;;;;;;;3.25;1.50;;;20.80;55.00;;;;;;5136207;27;20035;-58
2021/10/20 02:05:36;;;;;;;3.40;1.60;;;20.70;55.00;;;;;;5136467;27;20023;-58
2021/10/20 02:08:03;;;;;;;3.90;1.80;;;20.70;55.00;;;;;;5136110;27;20099;-59
2021/10/20 02:10:29;;;;;;;3.78;1.60;;;20.70;55.10;;;;;;5136056;27;20053;-58
2021/10/20 02:12:54;;;;;;;3.95;1.52;;;20.70;55.00;;;;;;5136020;27;20049;-58
2021/10/20 02:15:20;;;;;;;3.63;1.65;;;20.70;55.10;;;;;;5135898;27;20050;-56
2021/10/20 02:17:46;;;;;;;3.72;1.80;;;20.70;55.00;;;;;;5135833;27;20370;-57
2021/10/20 02:20:13;;;;;;;3.15;1.40;;;20.80;55.00;;;;;;5135905;27;20027;-59
2021/10/20 02:22:40;;;;;;;3.95;1.67;;;20.80;55.10;;;;;;5135723;27;20023;-58
2021/10/20 02:25:06;;;;;;;5.05;2.28;;;20.70;55.00;;;;;;5135761;27;20037;-57
2021/10/20 02:27:31;;;;;;;3.17;1.50;;;20.70;55.00;;;;;;5117225;27;20023;-59
2021/10/20 02:29:57;;;;;;;3.58;1.60;;;20.70;55.10;;;;;;5135583;27;20034;-58
2021/10/20 02:32:23;;;;;;;3.92;1.63;;;20.70;55.00;;;;;;5135602;27;20019;-58
2021/10/20 02:34:48;;;;;;;4.80;1.80;;;20.70;55.00;;;;;;5135552;27;20420;-56
2021/10/20 02:37:15;;;;;;;3.20;1.52;;;20.70;55.00;;;;;;5135453;27;20493;-59
2021/10/20 02:39:40;;;;;;;3.17;1.50;;;20.70;55.10;;;;;;5113465;28;20046;-58
2021/10/20 02:42:06;;;;;;;3.38;1.50;;;20.70;55.00;;;;;;5114814;28;20027;-58
2021/10/20 02:44:31;;;;;;;3.47;1.33;;;20.70;55.00;;;;;;5114986;28;20102;-59
2021/10/20 02:46:57;;;;;;;3.47;1.73;;;20.70;55.10;;;;;;5114835;28;20467;-57
2021/10/20 02:49:23;;;;;;;3.38;1.40;;;20.70;55.00;;;;;;5114418;28;20028;-56
2021/10/20 02:51:48;;;;;;;4.43;1.63;;;20.70;55.00;;;;;;5114902;28;20043;-57
2021/10/20 02:54:14;;;;;;;3.95;1.30;;;20.80;55.10;;;;;;5113338;28;20023;-57
2021/10/20 02:56:40;;;;;;;3.85;1.92;;;20.80;55.00;;;;;;5114547;28;20031;-59
2021/10/20 02:59:05;;;;;;;3.42;1.40;;;20.70;55.10;;;;;;5114424;28;20028;-59
2021/10/20 03:01:31;;;;;;;3.47;1.60;;;20.70;55.00;;;;;;5114477;28;20031;-57
2021/10/20 03:03:56;;;;;;;3.40;1.67;;;20.70;55.00;;;;;;5114319;28;20042;-57
2021/10/20 03:06:22;;;;;;;3.33;1.52;;;20.70;55.00;;;;;;5114340;28;20024;-59
2021/10/20 03:08:48;;;;;;;4.25;1.55;;;20.70;55.00;;;;;;5113000;28;20027;-58
2021/10/20 03:11:14;;;;;;;3.80;1.55;;;20.70;55.10;;;;;;5114332;28;20027;-58
2021/10/20 03:13:40;;;;;;;3.80;1.67;;;20.70;55.00;;;;;;5114205;28;20035;-58
2021/10/20 03:16:06;;;;;;;3.60;1.50;;;20.70;55.00;;;;;;5114170;28;20016;-57
2021/10/20 03:18:33;;;;;;;3.50;1.60;;;20.70;55.00;;;;;;5114186;28;20023;-58
2021/10/20 03:20:59;;;;;;;3.72;1.42;;;20.70;55.00;;;;;;5114381;28;20046;-57
2021/10/20 03:23:24;;;;;;;3.67;1.55;;;20.70;55.00;;;;;;5113964;28;20471;-57
2021/10/20 03:25:50;;;;;;;3.03;1.60;;;20.70;55.00;;;;;;5113987;28;20100;-57
2021/10/20 03:28:16;;;;;;;4.03;1.70;;;20.70;55.00;;;;;;5113859;28;20023;-58
2021/10/20 03:30:41;;;;;;;3.60;1.70;;;20.70;55.00;;;;;;5113916;28;20023;-57
2021/10/20 03:33:07;;;;;;;3.20;1.58;;;20.70;55.10;;;;;;5113889;28;20422;-57
2021/10/20 03:35:32;;;;;;;3.08;1.48;;;20.70;55.00;;;;;;5113864;28;20382;-60
2021/10/20 03:37:58;;;;;;;2.35;1.10;;;20.70;55.10;;;;;;5113834;28;20028;-59
2021/10/20 03:40:23;;;;;;;4.05;1.40;;;20.70;55.00;;;;;;5124508;27;20129;-59
2021/10/20 03:42:49;;;;;;;2.70;1.48;;;20.80;55.10;;;;;;5115712;27;20370;-58
2021/10/20 03:45:15;;;;;;;5.03;1.67;;;20.70;55.10;;;;;;5134170;27;20031;-57
2021/10/20 03:47:42;;;;;;;2.80;1.55;;;20.70;55.00;;;;;;5134214;27;20180;-58
2021/10/20 03:50:09;;;;;;;3.70;1.58;;;20.70;55.10;;;;;;5134228;27;20024;-57
2021/10/20 03:52:35;;;;;;;4.03;1.40;;;20.70;55.00;;;;;;5134130;27;20023;-58
2021/10/20 03:55:03;;;;;;;4.28;1.67;;;20.70;55.00;;;;;;5134046;27;20027;-53
2021/10/20 03:57:36;;;;;;;3.28;1.48;;;20.70;55.00;;;;;;5133865;27;20494;-56
2021/10/20 04:00:05;;;;;;;3.72;1.48;;;20.70;55.10;;;;;;5134326;27;20027;-59
2021/10/20 04:02:30;;;;;;;3.55;1.60;;;20.70;55.10;;;;;;5133189;27;20110;-58
2021/10/20 04:04:56;;;;;;;3.42;1.75;;;20.70;55.10;;;;;;5133947;27;20058;-57
2021/10/20 04:07:21;;;;;;;3.75;1.77;;;20.70;55.10;;;;;;5133905;27;20065;-57
2021/10/20 04:09:47;;;;;;;2.65;1.25;;;20.70;55.10;;;;;;5133882;27;20566;-56
2021/10/20 04:12:12;;;;;;;2.88;1.13;;;20.70;55.10;;;;;;5134086;27;20382;-57
2021/10/20 04:14:38;;;;;;;2.72;1.20;;;20.70;55.00;;;;;;5133885;27;20031;-56
2021/10/20 04:17:03;;;;;;;2.90;1.35;;;20.70;55.00;;;;;;5133815;28;20254;-57
2021/10/20 04:19:29;;;;;;;1.83;0.98;;;20.70;55.00;;;;;;5133747;28;20507;-58
2021/10/20 04:21:55;;;;;;;2.85;1.30;;;20.70;55.00;;;;;;5115255;28;20031;-56
2021/10/20 04:24:20;;;;;;;3.03;1.48;;;20.80;55.10;;;;;;5115415;28;20034;-56
2021/10/20 04:26:46;;;;;;;3.30;1.50;;;20.80;55.00;;;;;;5115284;28;20019;-57
2021/10/20 04:29:11;;;;;;;2.97;1.35;;;20.80;55.00;;;;;;5133962;28;20088;-58
2021/10/20 04:31:37;;;;;;;3.35;1.52;;;20.80;55.00;;;;;;5133639;28;20030;-58
2021/10/20 04:34:02;;;;;;;4.18;1.80;;;20.80;55.00;;;;;;5133712;28;20039;-60
2021/10/20 04:36:28;;;;;;;3.97;1.67;;;20.80;55.00;;;;;;5133644;28;20470;-57
2021/10/20 04:38:54;;;;;;;2.58;1.35;;;20.80;55.00;;;;;;5133614;28;20048;-59
2021/10/20 04:41:19;;;;;;;4.40;1.60;;;20.80;54.90;;;;;;5133388;28;20055;-57
2021/10/20 04:43:45;;;;;;;4.00;1.58;;;20.80;54.90;;;;;;5133481;28;20076;-59
2021/10/20 04:46:11;;;;;;;4.07;1.65;;;20.80;54.90;;;;;;5133518;28;20094;-57
2021/10/20 04:48:36;;;;;;;3.75;1.48;;;20.90;54.90;;;;;;5133508;28;20106;-59
2021/10/20 04:51:02;;;;;;;3.05;1.38;;;20.90;54.90;;;;;;5115060;28;20016;-57
2021/10/20 04:53:27;;;;;;;3.22;1.50;;;20.90;54.90;;;;;;5133398;28;20104;-58
2021/10/20 04:55:53;;;;;;;4.18;1.58;;;20.90;54.90;;;;;;5133263;28;20030;-58
2021/10/20 04:58:18;;;;;;;3.05;1.50;;;20.90;54.90;;;;;;5133294;28;20035;-57
2021/10/20 05:00:44;;;;;;;2.78;1.50;;;20.90;54.90;;;;;;5133386;28;20069;-58
2021/10/20 05:03:09;;;;;;;3.22;1.58;;;20.90;54.90;;;;;;5133325;28;20027;-58
2021/10/20 05:05:35;;;;;;;3.03;1.13;;;20.90;54.90;;;;;;5133310;28;20466;-57
2021/10/20 05:08:01;;;;;;;3.25;1.30;;;20.90;54.90;;;;;;5133371;28;20499;-57
2021/10/20 05:10:27;;;;;;;2.63;1.40;;;20.90;54.90;;;;;;5133344;28;20103;-58
2021/10/20 05:12:54;;;;;;;3.75;1.40;;;20.90;54.90;;;;;;5133953;27;20027;-57
2021/10/20 05:15:20;;;;;;;3.05;1.40;;;20.90;54.90;;;;;;5137275;27;20046;-54
2021/10/20 05:17:46;;;;;;;3.30;1.27;;;20.90;54.90;;;;;;5137241;27;20471;-56
2021/10/20 05:20:13;;;;;;;2.50;1.23;;;20.90;54.90;;;;;;5136963;27;20458;-56
2021/10/20 05:22:40;;;;;;;2.45;1.17;;;20.90;54.90;;;;;;5137169;27;20023;-57
2021/10/20 05:25:07;;;;;;;2.83;1.25;;;20.90;54.90;;;;;;5136844;27;20116;-57
2021/10/20 05:27:34;;;;;;;3.08;1.30;;;20.90;54.90;;;;;;5136857;27;20012;-60
2021/10/20 05:30:00;;;;;;;3.70;1.60;;;20.90;54.90;;;;;;5136794;27;20029;-58
2021/10/20 05:32:27;;;;;;;3.85;1.58;;;20.90;54.90;;;;;;5136803;27;20485;-57
2021/10/20 05:34:53;;;;;;;3.00;1.35;;;20.90;54.90;;;;;;5136788;27;20035;-57
2021/10/20 05:37:19;;;;;;;3.35;1.52;;;20.90;54.90;;;;;;5136992;27;20070;-57
2021/10/20 05:39:47;;;;;;;3.85;1.42;;;20.90;54.90;;;;;;5136636;27;20046;-60
2021/10/20 05:42:12;;;;;;;3.03;1.40;;;20.90;54.90;;;;;;5136509;27;20056;-57
2021/10/20 05:44:38;;;;;;;3.05;1.30;;;20.90;54.90;;;;;;5136479;27;20027;-57
2021/10/20 05:47:04;;;;;;;2.67;1.38;;;20.90;54.90;;;;;;5136543;27;20103;-57
2021/10/20 05:49:29;;;;;;;3.63;1.65;;;20.90;54.90;;;;;;5136462;27;20355;-57
2021/10/20 05:51:55;;;;;;;3.17;1.58;;;20.90;54.90;;;;;;5136406;27;20489;-57
2021/10/20 05:54:20;;;;;;;3.28;1.40;;;20.90;55.00;;;;;;5136281;27;20027;-60
2021/10/20 05:56:46;;;;;;;3.95;1.60;;;20.90;55.00;;;;;;5136433;27;20101;-57
2021/10/20 05:59:11;;;;;;;4.32;1.58;;;20.90;54.90;;;;;;5117814;27;20482;-56
2021/10/20 06:01:37;;;;;;;2.17;1.08;;;20.90;54.90;;;;;;5136194;27;20027;-57
2021/10/20 06:04:03;;;;;;;2.95;1.40;;;20.90;54.90;;;;;;5117662;27;20504;-57
2021/10/20 06:06:29;;;;;;;3.42;1.50;;;20.90;54.90;;;;;;5136154;27;20019;-56
2021/10/20 06:08:54;;;;;;;2.65;1.42;;;20.90;54.90;;;;;;5135974;27;20509;-57
2021/10/20 06:11:21;;;;;;;5.25;1.42;;;20.90;55.00;;;;;;5117591;27;20027;-57
2021/10/20 06:13:46;;;;;;;2.55;1.35;;;20.90;54.90;;;;;;5135960;27;20057;-58
2021/10/20 06:16:12;;;;;;;3.35;1.55;;;20.90;55.00;;;;;;5117488;27;20027;-58
2021/10/20 06:18:38;;;;;;;2.70;1.20;;;20.90;54.90;;;;;;5136175;27;20126;-58
2021/10/20 06:21:04;;;;;;;3.33;1.50;;;20.90;54.90;;;;;;5117481;27;20043;-59
2021/10/20 06:23:30;;;;;;;2.38;1.20;;;20.90;54.90;;;;;;5135649;27;20119;-57
2021/10/20 06:25:56;;;;;;;3.00;1.45;;;20.90;54.90;;;;;;5134663;27;20030;-58
2021/10/20 06:28:22;;;;;;;3.25;1.23;;;20.90;54.90;;;;;;5135892;27;20024;-59
2021/10/20 06:30:47;;;;;;;2.58;1.30;;;20.90;54.90;;;;;;5135706;27;20272;-59
2021/10/20 06:33:13;;;;;;;3.33;1.42;;;20.90;54.90;;;;;;5135627;27;20031;-58
2021/10/20 06:35:38;;;;;;;4.10;1.40;;;20.90;54.90;;;;;;5135449;27;20062;-58
2021/10/20 06:38:04;;;;;;;3.72;1.52;;;20.90;55.00;;;;;;5135436;27;20034;-58
2021/10/20 06:40:31;;;;;;;2.97;1.63;;;20.90;54.90;;;;;;5135349;27;20388;-58
2021/10/20 06:42:57;;;;;;;2.92;1.40;;;21.00;54.90;;;;;;5116878;27;20034;-57
2021/10/20 06:45:23;;;;;;;4.88;1.75;;;20.90;54.90;;;;;;5135360;27;20054;-59
2021/10/20 06:47:49;;;;;;;4.60;1.67;;;20.90;54.90;;;;;;5112726;28;20112;-56
2021/10/20 06:50:15;;;;;;;2.65;1.27;;;20.90;54.90;;;;;;5118318;27;20034;-59
2021/10/20 06:52:41;;;;;;;3.10;1.45;;;20.90;54.90;;;;;;5112742;27;20024;-57
2021/10/20 06:55:07;;;;;;;3.85;1.80;;;21.00;54.90;;;;;;5117944;27;20030;-55
2021/10/20 06:57:33;;;;;;;4.35;1.60;;;21.00;54.90;;;;;;5094077;28;20023;-59
2021/10/20 06:59:58;;;;;;;3.28;1.30;;;21.00;54.90;;;;;;5099348;28;20028;-57
2021/10/20 07:02:24;;;;;;;3.00;1.20;;;21.00;54.90;;;;;;5130443;27;20397;-56
2021/10/20 07:04:49;;;;;;;4.68;1.60;;;21.00;54.90;;;;;;5129945;27;20031;-56
2021/10/20 07:07:15;;;;;;;3.78;1.60;;;21.00;54.90;;;;;;5108900;27;20554;-56
2021/10/20 07:09:41;;;;;;;2.95;1.35;;;21.00;54.90;;;;;;5101841;28;20024;-56
2021/10/20 07:12:07;;;;;;;3.22;1.50;;;21.00;54.80;;;;;;5113490;27;20445;-57
2021/10/20 07:14:33;;;;;;;5.82;1.80;;;21.00;54.80;;;;;;5121644;27;20023;-55
2021/10/20 07:16:58;;;;;;;2.50;1.13;;;21.00;54.80;;;;;;5116024;27;20391;-55
2021/10/20 07:19:26;;;;;;;4.38;1.80;;;21.00;54.90;;;;;;5093919;28;20024;-59
2021/10/20 07:21:52;;;;;;;4.28;1.60;;;21.00;54.80;;;;;;5116524;27;20040;-56
2021/10/20 07:24:17;;;;;;;2.63;1.20;;;21.00;54.90;;;;;;5099875;27;20100;-55
2021/10/20 07:26:43;;;;;;;3.40;1.48;;;21.00;54.90;;;;;;5117812;27;20066;-54
2021/10/20 07:29:09;;;;;;;3.22;1.48;;;21.00;54.90;;;;;;5122698;27;20034;-56
2021/10/20 07:31:34;;;;;;;3.10;1.27;;;21.00;54.90;;;;;;5116137;27;20024;-56
2021/10/20 07:34:00;;;;;;;4.25;1.50;;;21.00;54.90;;;;;;5125412;27;20034;-55
2021/10/20 07:36:27;;;;;;;2.28;1.38;;;21.10;54.90;;;;;;5126699;27;20038;-54
2021/10/20 07:38:52;;;;;;;3.00;1.40;;;21.00;54.90;;;;;;5111304;27;20170;-57
2021/10/20 07:41:18;;;;;;;3.03;1.30;;;21.10;54.90;;;;;;5120715;27;20614;-55
2021/10/20 07:43:44;;;;;;;3.47;1.02;;;21.00;54.90;;;;;;5128967;27;20035;-56
2021/10/20 07:46:10;;;;;;;3.72;1.70;;;21.10;54.90;;;;;;5104732;28;20020;-56
2021/10/20 07:48:35;;;;;;;3.45;1.48;;;21.10;54.90;;;;;;5108029;27;20024;-57
2021/10/20 07:51:01;;;;;;;2.92;1.52;;;21.00;54.90;;;;;;5124721;27;20103;-57
2021/10/20 07:53:26;;;;;;;6.10;1.65;;;21.00;54.90;;;;;;5117700;27;20088;-56
2021/10/20 07:55:52;;;;;;;3.08;1.40;;;21.10;54.90;;;;;;5122691;27;20027;-57
2021/10/20 07:58:17;;;;;;;4.75;2.13;;;21.10;54.90;;;;;;5115104;27;20042;-51
2021/10/20 08:00:43;;;;;;;3.58;1.50;;;21.10;54.90;;;;;;5118724;27;20035;-57
2021/10/20 08:03:08;;;;;;;2.30;1.20;;;21.10;54.90;;;;;;5124605;27;20402;-58
2021/10/20 08:05:34;;;;;;;4.20;1.92;;;21.10;54.90;;;;;;5122619;27;20076;-57
2021/10/20 08:08:00;;;;;;;3.13;1.40;;;21.10;54.90;;;;;;5109755;27;20027;-58
2021/10/20 08:10:27;;;;;;;2.75;1.30;;;21.10;54.90;;;;;;5119817;27;20015;-58
2021/10/20 08:12:55;;;;;;;1.55;1.05;;;21.00;55.00;;;;;;5119690;27;20036;-56
2021/10/20 08:15:21;;;;;;;3.38;1.40;;;21.10;55.00;;;;;;5123438;28;20016;-55
2021/10/20 08:17:47;;;;;;;2.13;1.20;;;21.10;55.00;;;;;;5097770;28;20122;-58
2021/10/20 08:20:17;;;;;;;3.65;1.45;;;21.10;55.00;;;;;;5121572;28;20099;-57
2021/10/20 08:22:43;;;;;;;3.53;1.50;;;21.10;55.00;;;;;;5119277;28;20019;-60
2021/10/20 08:25:10;;;;;;;3.45;1.70;;;21.10;55.00;;;;;;5094060;28;20522;-59
2021/10/20 08:27:36;;;;;;;2.85;1.20;;;21.10;55.00;;;;;;5099647;28;20079;-57
2021/10/20 08:30:03;;;;;;;2.72;1.30;;;21.10;55.00;;;;;;5097882;28;20031;-58
2021/10/20 08:32:29;;;;;;;3.30;1.15;;;21.10;55.00;;;;;;5122864;28;20106;-58
2021/10/20 08:34:55;;;;;;;3.38;1.60;;;21.10;55.00;;;;;;5120940;28;20114;-59
2021/10/20 08:37:20;;;;;;;3.33;1.52;;;21.00;55.00;;;;;;5103039;28;20027;-57
2021/10/20 08:39:46;;;;;;;2.70;1.35;;;21.10;55.10;;;;;;5119411;28;20505;-57
2021/10/20 08:42:12;;;;;;;3.95;1.45;;;21.10;55.00;;;;;;5112774;28;20031;-56
2021/10/20 08:44:38;;;;;;;3.53;1.63;;;21.10;55.00;;;;;;5124450;28;20378;-56
2021/10/20 08:47:05;;;;;;;3.67;1.45;;;21.10;55.00;;;;;;5100607;28;20490;-55
2021/10/20 08:49:31;;;;;;;3.50;1.38;;;21.10;54.90;;;;;;5117349;27;20024;-58
2021/10/20 08:51:57;;;;;;;4.47;1.70;;;21.10;54.90;;;;;;5121197;27;20051;-56
2021/10/20 08:54:22;;;;;;;3.28;1.50;;;21.10;54.90;;;;;;5121810;27;20063;-58
2021/10/20 08:56:48;;;;;;;2.30;0.93;;;21.10;54.90;;;;;;5113418;27;20028;-55
2021/10/20 08:59:15;;;;;;;2.03;1.05;;;21.10;54.90;;;;;;5118046;27;20033;-58
2021/10/20 09:01:41;;;;;;;2.45;1.35;;;21.20;55.00;;;;;;5130849;27;20016;-57
2021/10/20 09:04:08;;;;;;;2.53;1.35;;;21.20;54.90;;;;;;5099640;28;20065;-54
2021/10/20 09:06:35;;;;;;;2.42;1.17;;;21.20;54.90;;;;;;5107050;27;20042;-55
2021/10/20 09:09:07;;;;;;;1.67;0.88;;;21.20;54.90;;;;;;5121909;27;20062;-57
2021/10/20 09:11:33;;;;;;;3.05;1.42;;;21.20;54.90;;;;;;5127596;27;20463;-57
2021/10/20 09:14:11;;;;;;;2.65;1.10;;;21.20;55.00;;;;;;5120494;27;20039;-56
2021/10/20 09:16:38;;;;;;;2.67;1.30;;;21.10;55.00;;;;;;5106748;27;20023;-56
2021/10/20 09:19:31;;;;;;;2.88;1.30;;;21.20;55.00;;;;;;5114188;27;20096;-59
2021/10/20 09:22:01;;;;;;;1.60;0.57;;;21.20;55.00;;;;;;5122622;27;20036;-59
2021/10/20 09:24:29;;;;;;;4.25;1.50;;;21.20;55.10;;;;;;5098193;28;20035;-56
2021/10/20 09:26:57;;;;;;;2.28;1.20;;;21.20;55.10;;;;;;5114151;27;20039;-57
2021/10/20 09:29:29;;;;;;;3.35;1.42;;;21.20;55.10;;;;;;5131270;27;20023;-58
2021/10/20 09:31:56;;;;;;;3.00;1.35;;;21.20;55.10;;;;;;5120356;27;20402;-54
2021/10/20 09:34:22;;;;;;;2.72;1.40;;;21.10;55.10;;;;;;5115645;28;20050;-56
2021/10/20 09:36:54;;;;;;;1.55;0.93;;;21.20;55.20;;;;;;5104255;28;20036;-55
2021/10/20 09:39:20;;;;;;;3.03;1.52;;;21.10;55.20;;;;;;5111574;27;20031;-57
2021/10/20 09:41:45;;;;;;;4.93;1.40;;;21.10;55.20;;;;;;5132299;27;20039;-56
2021/10/20 09:44:13;;;;;;;3.00;1.20;;;21.10;55.20;;;;;;5134793;27;20115;-56
2021/10/20 09:46:43;;;;;;;3.95;1.50;;;21.10;55.20;;;;;;5102719;27;20398;-56
2021/10/20 09:49:19;;;;;;;3.35;1.33;;;21.10;55.20;;;;;;5122343;27;20072;-56
2021/10/20 09:51:46;;;;;;;4.05;1.42;;;21.20;55.20;;;;;;5126183;27;20070;-57
2021/10/20 09:54:25;;;;;;;2.90;1.30;;;21.20;55.20;;;;;;5134771;27;20392;-56
2021/10/20 09:56:58;;;;;;;2.70;1.38;;;21.20;55.20;;;;;;5105138;27;20110;-56
2021/10/20 09:59:25;;;;;;;2.97;1.47;;;21.10;55.20;;;;;;5120318;27;20031;-56
2021/10/20 10:01:51;;;;;;;3.78;1.70;;;21.20;55.30;;;;;;5122445;27;20034;-56
2021/10/20 10:04:19;;;;;;;3.00;0.98;;;21.20;55.30;;;;;;5100804;27;20395;-57
2021/10/20 10:06:45;;;;;;;1.40;0.85;;;21.20;55.30;;;;;;5114368;27;20024;-58
2021/10/20 10:09:15;;;;;;;3.40;1.40;;;21.20;55.30;;;;;;5113940;27;20024;-57
2021/10/20 10:11:50;;;;;;;3.55;1.45;;;21.20;55.40;;;;;;5131863;27;20039;-58
2021/10/20 10:14:19;;;;;;;3.20;1.73;;;21.20;55.30;;;;;;5116846;27;20028;-58
2021/10/20 10:16:46;;;;;;;3.35;1.58;;;21.20;55.30;;;;;;5111976;27;20030;-57
2021/10/20 10:19:13;;;;;;;3.33;1.20;;;21.20;55.30;;;;;;5125883;27;20023;-58
2021/10/20 10:21:42;;;;;;;2.53;1.38;;;21.20;55.30;;;;;;5118343;27;20160;-59
2021/10/20 10:24:17;;;;;;;3.63;1.42;;;21.20;55.30;;;;;;5125070;27;20057;-57
2021/10/20 10:27:05;;;;;;;2.65;1.30;;;21.20;55.30;;;;;;5105217;27;20030;-58
2021/10/20 10:29:33;;;;;;;2.85;1.40;;;21.20;55.40;;;;;;5119946;27;20039;-58
2021/10/20 10:32:01;;;;;;;4.28;1.70;;;21.20;55.40;;;;;;5133817;27;20115;-59
2021/10/20 10:34:33;;;;;;;4.28;1.80;;;21.20;55.40;;;;;;5120676;27;20077;-59
2021/10/20 10:36:59;;;;;;;3.10;1.35;;;21.20;55.40;;;;;;5111415;27;20058;-57
2021/10/20 10:39:33;;;;;;;2.40;1.10;;;21.20;55.40;;;;;;5114436;27;20118;-59
2021/10/20 10:42:04;;;;;;;3.13;1.35;;;21.20;55.50;;;;;;5114319;28;20027;-56
2021/10/20 10:44:31;;;;;;;3.10;1.10;;;21.20;55.50;;;;;;5113428;27;20089;-56
2021/10/20 10:47:26;;;;;;;2.58;1.30;;;21.20;55.50;;;;;;5118305;27;20405;-56
2021/10/20 10:49:54;;;;;;;3.58;1.30;;;21.20;55.50;;;;;;5098879;28;20500;-57
2021/10/20 10:52:33;;;;;;;3.63;1.40;;;21.20;55.50;;;;;;5116256;27;20020;-58
2021/10/20 10:55:18;;;;;;;3.40;1.38;;;21.20;55.50;;;;;;5120541;27;20137;-56
2021/10/20 10:58:00;;;;;;;2.65;1.30;;;21.20;55.60;;;;;;5108929;27;20034;-57
2021/10/20 11:00:29;;;;;;;2.83;1.48;;;21.20;55.60;;;;;;5121352;27;20030;-58
2021/10/20 11:03:13;;;;;;;2.90;1.33;;;21.20;55.60;;;;;;5129415;27;20134;-57
2021/10/20 11:05:39;;;;;;;3.40;1.50;;;21.20;55.60;;;;;;5098174;28;20052;-55
2021/10/20 11:08:09;;;;;;;3.25;1.33;;;21.20;55.60;;;;;;5106278;27;20049;-57
2021/10/20 11:10:40;;;;;;;3.75;1.42;;;21.10;55.70;;;;;;5126110;27;20034;-56
2021/10/20 11:13:07;;;;;;;2.28;1.02;;;21.10;55.70;;;;;;5118275;27;20023;-56
2021/10/20 11:15:34;;;;;;;3.08;1.33;;;21.10;55.70;;;;;;5113198;28;20110;-55
2021/10/20 11:18:00;;;;;;;1.92;1.10;;;21.20;55.70;;;;;;5114681;27;20061;-57
2021/10/20 11:20:29;;;;;;;3.00;1.30;;;21.20;55.70;;;;;;5117568;27;20024;-58
2021/10/20 11:23:00;;;;;;;2.53;1.17;;;21.20;55.70;;;;;;5116108;27;20083;-57
2021/10/20 11:25:25;;;;;;;1.75;1.02;;;21.20;55.70;;;;;;5112167;27;20024;-59
2021/10/20 11:27:56;;;;;;;4.20;1.48;;;21.10;55.70;;;;;;5112860;27;20075;-59
2021/10/20 11:30:28;;;;;;;3.78;1.60;;;21.20;55.70;;;;;;5122414;27;20027;-58
2021/10/20 11:32:55;;;;;;;4.35;1.98;;;21.10;55.70;;;;;;5124586;27;20035;-57
2021/10/20 11:35:26;;;;;;;4.05;1.45;;;21.20;55.70;;;;;;5126305;27;20482;-60
2021/10/20 11:38:00;;;;;;;3.40;1.52;;;21.20;55.70;;;;;;5106544;27;20027;-58
2021/10/20 11:40:34;;;;;;;;;;;21.20;55.80;;;;;;5097717;28;20066;-58
2021/10/20 11:43:00;;;;;;;2.90;1.48;;;21.20;55.70;;;;;;5115309;27;19922;-57
2021/10/20 11:45:29;;;;;;;3.67;1.50;;;21.20;55.70;;;;;;5113526;28;20030;-59
2021/10/20 11:48:00;;;;;;;5.18;1.38;;;21.20;55.70;;;;;;5077946;27;20246;-57
2021/10/20 11:50:28;;;;;;;2.88;1.33;;;21.20;55.70;;;;;;5119900;27;20055;-57
2021/10/20 11:52:58;;;;;;;3.55;1.70;;;21.20;55.80;;;;;;5116925;27;20031;-56
2021/10/20 11:55:24;;;;;;;3.22;1.52;;;21.20;55.80;;;;;;5121562;27;20457;-58
2021/10/20 11:57:50;;;;;;;3.58;1.60;;;21.20;55.80;;;;;;5113704;27;20108;-58
2021/10/20 12:00:15;;;;;;;2.85;1.40;;;21.20;55.70;;;;;;5116217;27;20465;-58
2021/10/20 12:02:41;;;;;;;3.72;1.65;;;21.20;55.80;;;;;;5122663;27;20038;-58
2021/10/20 12:05:07;;;;;;;3.33;1.40;;;21.20;55.70;;;;;;5108074;28;20032;-58
2021/10/20 12:07:33;;;;;;;3.55;1.58;;;21.20;55.80;;;;;;5117834;27;20026;-58
2021/10/20 12:10:01;;;;;;;3.97;1.90;;;21.20;55.80;;;;;;5131030;27;20071;-55
2021/10/20 12:12:27;;;;;;;2.45;1.10;;;21.20;55.80;;;;;;5125112;27;20023;-55
2021/10/20 12:14:58;;;;;;;2.78;1.17;;;21.20;55.80;;;;;;5115299;27;20023;-58
2021/10/20 12:17:29;;;;;;;4.82;1.85;;;21.20;55.80;;;;;;5115397;27;20023;-58
2021/10/20 12:19:56;;;;;;;3.47;1.50;;;21.20;55.80;;;;;;5115432;28;20451;-58
2021/10/20 12:22:23;;;;;;;2.80;1.25;;;21.20;55.90;;;;;;5122351;27;20019;-58
2021/10/20 12:24:51;;;;;;;3.67;1.45;;;21.20;55.90;;;;;;5133256;28;20031;-55
2021/10/20 12:27:19;;;;;;;2.28;1.15;;;21.20;55.90;;;;;;5133194;28;20015;-58
2021/10/20 12:29:51;;;;;;;2.72;1.00;;;21.20;55.90;;;;;;5133351;28;20498;-58
2021/10/20 12:32:20;;;;;;;2.25;1.13;;;21.10;55.90;;;;;;5133186;28;20023;-58
2021/10/20 12:35:00;;;;;;;1.95;1.27;;;21.20;55.90;;;;;;5125405;28;20077;-57
2021/10/20 12:37:47;;;;;;;2.22;1.15;;;21.20;55.90;;;;;;5127664;28;20033;-55
2021/10/20 12:40:14;;;;;;;2.28;1.10;;;21.20;56.00;;;;;;5122577;28;20131;-58
2021/10/20 12:42:45;;;;;;;2.55;1.30;;;21.20;55.90;;;;;;5128127;28;20031;-58
2021/10/20 12:45:11;;;;;;;8.80;1.77;;;21.20;56.00;;;;;;5124373;28;20107;-59
2021/10/20 12:47:45;;;;;;;5.93;1.58;;;21.20;56.00;;;;;;5118800;28;20023;-57